sensor_id;sensor_type;location;lat;lon;timestamp;P1;durP1;ratioP1;P2;durP2;ratioP2
5787;SDS011;2920;48.158;12.254;2023-05-07T00:00:26;3.72;;;3.03;;
5787;SDS011;2920;48.158;12.254;2023-05-07T00:02:51;3.85;;;3.20;;
5787;SDS011;2920;48.158;12.254;2023-05-07T00:05:17;5.60;;;3.25;;
5787;SDS011;2920;48.158;12.254;2023-05-07T00:07:42;4.18;;;3.35;;
5787;SDS011;2920;48.158;12.254;2023-05-07T00:10:08;3.55;;;2.88;;
5787;SDS011;2920;48.158;12.254;2023-05-07T00:12:33;4.93;;;3.17;;
5787;SDS011;2920;48.158;12.254;2023-05-07T00:15:02;5.38;;;3.90;;
5787;SDS011;2920;48.158;12.254;2023-05-07T00:17:28;6.22;;;3.42;;
5787;SDS011;2920;48.158;12.254;2023-05-07T00:19:54;4.90;;;3.55;;
5787;SDS011;2920;48.158;12.254;2023-05-07T00:22:19;4.97;;;3.58;;
5787;SDS011;2920;48.158;12.254;2023-05-07T00:24:44;6.60;;;3.72;;
5787;SDS011;2920;48.158;12.254;2023-05-07T00:27:10;4.75;;;3.80;;
5787;SDS011;2920;48.158;12.254;2023-05-07T00:29:35;4.50;;;3.40;;
5787;SDS011;2920;48.158;12.254;2023-05-07T00:32:01;5.05;;;3.83;;
5787;SDS011;2920;48.158;12.254;2023-05-07T00:34:26;5.00;;;3.78;;
5787;SDS011;2920;48.158;12.254;2023-05-07T00:36:52;6.70;;;3.55;;
5787;SDS011;2920;48.158;12.254;2023-05-07T00:39:17;3.90;;;3.10;;
5787;SDS011;2920;48.158;12.254;2023-05-07T00:41:42;4.40;;;3.92;;
5787;SDS011;2920;48.158;12.254;2023-05-07T00:44:08;4.43;;;2.67;;
5787;SDS011;2920;48.158;12.254;2023-05-07T00:46:33;4.15;;;3.58;;
5787;SDS011;2920;48.158;12.254;2023-05-07T00:48:59;3.90;;;3.38;;
5787;SDS011;2920;48.158;12.254;2023-05-07T00:51:25;3.80;;;3.15;;
5787;SDS011;2920;48.158;12.254;2023-05-07T00:53:51;4.38;;;3.30;;
5787;SDS011;2920;48.158;12.254;2023-05-07T00:56:17;5.40;;;3.67;;
5787;SDS011;2920;48.158;12.254;2023-05-07T00:58:42;5.20;;;3.55;;
5787;SDS011;2920;48.158;12.254;2023-05-07T01:01:07;5.35;;;3.15;;
5787;SDS011;2920;48.158;12.254;2023-05-07T01:03:33;4.88;;;3.40;;
5787;SDS011;2920;48.158;12.254;2023-05-07T01:05:58;4.30;;;3.42;;
5787;SDS011;2920;48.158;12.254;2023-05-07T01:08:24;5.78;;;3.40;;
5787;SDS011;2920;48.158;12.254;2023-05-07T01:10:51;3.88;;;3.05;;
5787;SDS011;2920;48.158;12.254;2023-05-07T01:13:17;7.22;;;4.10;;
5787;SDS011;2920;48.158;12.254;2023-05-07T01:15:43;4.03;;;3.00;;
5787;SDS011;2920;48.158;12.254;2023-05-07T01:18:09;4.15;;;3.25;;
5787;SDS011;2920;48.158;12.254;2023-05-07T01:20:34;3.65;;;2.85;;
5787;SDS011;2920;48.158;12.254;2023-05-07T01:23:00;5.40;;;3.70;;
5787;SDS011;2920;48.158;12.254;2023-05-07T01:25:26;4.25;;;3.25;;
5787;SDS011;2920;48.158;12.254;2023-05-07T01:27:51;3.70;;;2.67;;
5787;SDS011;2920;48.158;12.254;2023-05-07T01:30:16;4.47;;;3.53;;
5787;SDS011;2920;48.158;12.254;2023-05-07T01:35:20;3.03;;;2.67;;
5787;SDS011;2920;48.158;12.254;2023-05-07T01:37:48;4.00;;;3.13;;
5787;SDS011;2920;48.158;12.254;2023-05-07T01:40:13;7.63;;;3.10;;
5787;SDS011;2920;48.158;12.254;2023-05-07T01:42:39;2.72;;;2.35;;
5787;SDS011;2920;48.158;12.254;2023-05-07T01:45:05;3.47;;;2.80;;
5787;SDS011;2920;48.158;12.254;2023-05-07T01:47:31;4.20;;;3.20;;
5787;SDS011;2920;48.158;12.254;2023-05-07T01:49:57;3.35;;;2.65;;
5787;SDS011;2920;48.158;12.254;2023-05-07T01:52:23;5.88;;;3.20;;
5787;SDS011;2920;48.158;12.254;2023-05-07T01:54:49;3.78;;;2.92;;
5787;SDS011;2920;48.158;12.254;2023-05-07T01:57:15;5.15;;;3.17;;
5787;SDS011;2920;48.158;12.254;2023-05-07T01:59:40;4.00;;;3.25;;
5787;SDS011;2920;48.158;12.254;2023-05-07T02:02:05;3.28;;;2.83;;
5787;SDS011;2920;48.158;12.254;2023-05-07T02:04:30;4.85;;;2.75;;
5787;SDS011;2920;48.158;12.254;2023-05-07T02:06:56;4.13;;;3.47;;
5787;SDS011;2920;48.158;12.254;2023-05-07T02:09:21;5.28;;;3.30;;
5787;SDS011;2920;48.158;12.254;2023-05-07T02:11:47;3.30;;;2.55;;
5787;SDS011;2920;48.158;12.254;2023-05-07T02:14:13;5.32;;;4.10;;
5787;SDS011;2920;48.158;12.254;2023-05-07T02:16:38;4.80;;;3.30;;
5787;SDS011;2920;48.158;12.254;2023-05-07T02:19:03;4.45;;;3.55;;
5787;SDS011;2920;48.158;12.254;2023-05-07T02:21:29;4.57;;;3.30;;
5787;SDS011;2920;48.158;12.254;2023-05-07T02:23:54;3.80;;;3.03;;
5787;SDS011;2920;48.158;12.254;2023-05-07T02:26:20;6.88;;;4.28;;
5787;SDS011;2920;48.158;12.254;2023-05-07T02:28:46;4.30;;;3.40;;
5787;SDS011;2920;48.158;12.254;2023-05-07T02:31:12;4.50;;;3.00;;
5787;SDS011;2920;48.158;12.254;2023-05-07T02:33:37;4.40;;;3.47;;
5787;SDS011;2920;48.158;12.254;2023-05-07T02:36:08;3.95;;;3.22;;
5787;SDS011;2920;48.158;12.254;2023-05-07T02:38:34;4.13;;;3.42;;
5787;SDS011;2920;48.158;12.254;2023-05-07T02:41:00;6.07;;;3.53;;
5787;SDS011;2920;48.158;12.254;2023-05-07T02:43:25;5.60;;;3.40;;
5787;SDS011;2920;48.158;12.254;2023-05-07T02:45:59;4.10;;;3.38;;
5787;SDS011;2920;48.158;12.254;2023-05-07T02:48:34;4.63;;;3.58;;
5787;SDS011;2920;48.158;12.254;2023-05-07T02:50:59;4.63;;;3.17;;
5787;SDS011;2920;48.158;12.254;2023-05-07T02:53:25;4.40;;;3.38;;
5787;SDS011;2920;48.158;12.254;2023-05-07T02:55:56;5.07;;;3.90;;
5787;SDS011;2920;48.158;12.254;2023-05-07T02:58:22;3.75;;;3.05;;
5787;SDS011;2920;48.158;12.254;2023-05-07T03:00:47;3.25;;;2.60;;
5787;SDS011;2920;48.158;12.254;2023-05-07T03:03:13;4.53;;;3.28;;
5787;SDS011;2920;48.158;12.254;2023-05-07T03:05:39;3.63;;;2.72;;
5787;SDS011;2920;48.158;12.254;2023-05-07T03:08:04;5.38;;;3.40;;
5787;SDS011;2920;48.158;12.254;2023-05-07T03:10:30;3.75;;;2.75;;
5787;SDS011;2920;48.158;12.254;2023-05-07T03:12:55;4.93;;;3.20;;
5787;SDS011;2920;48.158;12.254;2023-05-07T03:15:20;4.03;;;2.95;;
5787;SDS011;2920;48.158;12.254;2023-05-07T03:17:46;3.10;;;1.98;;
5787;SDS011;2920;48.158;12.254;2023-05-07T03:20:12;3.05;;;2.40;;
5787;SDS011;2920;48.158;12.254;2023-05-07T03:22:38;3.20;;;2.90;;
5787;SDS011;2920;48.158;12.254;2023-05-07T03:25:03;3.45;;;2.45;;
5787;SDS011;2920;48.158;12.254;2023-05-07T03:27:29;2.92;;;2.47;;
5787;SDS011;2920;48.158;12.254;2023-05-07T03:29:54;5.13;;;2.50;;
5787;SDS011;2920;48.158;12.254;2023-05-07T03:32:20;2.92;;;2.30;;
5787;SDS011;2920;48.158;12.254;2023-05-07T03:34:45;3.88;;;2.63;;
5787;SDS011;2920;48.158;12.254;2023-05-07T03:37:10;2.78;;;2.28;;
5787;SDS011;2920;48.158;12.254;2023-05-07T03:39:36;4.00;;;2.92;;
5787;SDS011;2920;48.158;12.254;2023-05-07T03:42:01;4.97;;;3.28;;
5787;SDS011;2920;48.158;12.254;2023-05-07T03:44:26;2.80;;;2.35;;
5787;SDS011;2920;48.158;12.254;2023-05-07T03:46:52;5.88;;;3.72;;
5787;SDS011;2920;48.158;12.254;2023-05-07T03:49:17;2.80;;;2.30;;
5787;SDS011;2920;48.158;12.254;2023-05-07T03:51:42;3.30;;;2.80;;
5787;SDS011;2920;48.158;12.254;2023-05-07T03:54:08;3.38;;;2.90;;
5787;SDS011;2920;48.158;12.254;2023-05-07T03:56:33;2.92;;;2.30;;
5787;SDS011;2920;48.158;12.254;2023-05-07T03:58:59;3.03;;;2.33;;
5787;SDS011;2920;48.158;12.254;2023-05-07T04:01:25;3.00;;;2.35;;
5787;SDS011;2920;48.158;12.254;2023-05-07T04:03:50;3.65;;;2.80;;
5787;SDS011;2920;48.158;12.254;2023-05-07T04:06:16;3.13;;;2.60;;
5787;SDS011;2920;48.158;12.254;2023-05-07T04:08:42;5.60;;;3.22;;
5787;SDS011;2920;48.158;12.254;2023-05-07T04:11:07;3.72;;;2.70;;
5787;SDS011;2920;48.158;12.254;2023-05-07T04:13:33;4.28;;;3.20;;
5787;SDS011;2920;48.158;12.254;2023-05-07T04:15:58;3.83;;;2.67;;
5787;SDS011;2920;48.158;12.254;2023-05-07T04:18:23;3.13;;;2.65;;
5787;SDS011;2920;48.158;12.254;2023-05-07T04:20:48;4.65;;;3.03;;
5787;SDS011;2920;48.158;12.254;2023-05-07T04:23:16;3.83;;;2.70;;
5787;SDS011;2920;48.158;12.254;2023-05-07T04:25:42;5.75;;;3.65;;
5787;SDS011;2920;48.158;12.254;2023-05-07T04:28:07;4.70;;;2.70;;
5787;SDS011;2920;48.158;12.254;2023-05-07T04:30:32;3.45;;;2.92;;
5787;SDS011;2920;48.158;12.254;2023-05-07T04:32:58;5.55;;;3.70;;
5787;SDS011;2920;48.158;12.254;2023-05-07T04:35:23;4.80;;;3.60;;
5787;SDS011;2920;48.158;12.254;2023-05-07T04:37:48;3.75;;;3.33;;
5787;SDS011;2920;48.158;12.254;2023-05-07T04:40:14;3.45;;;3.03;;
5787;SDS011;2920;48.158;12.254;2023-05-07T04:42:39;5.60;;;3.88;;
5787;SDS011;2920;48.158;12.254;2023-05-07T04:45:04;5.05;;;3.85;;
5787;SDS011;2920;48.158;12.254;2023-05-07T04:47:30;3.58;;;2.67;;
5787;SDS011;2920;48.158;12.254;2023-05-07T04:49:56;3.42;;;2.70;;
5787;SDS011;2920;48.158;12.254;2023-05-07T04:52:22;3.75;;;2.63;;
5787;SDS011;2920;48.158;12.254;2023-05-07T04:54:48;4.93;;;3.50;;
5787;SDS011;2920;48.158;12.254;2023-05-07T04:57:13;5.13;;;3.03;;
5787;SDS011;2920;48.158;12.254;2023-05-07T04:59:38;3.20;;;2.90;;
5787;SDS011;2920;48.158;12.254;2023-05-07T05:02:05;4.03;;;3.13;;
5787;SDS011;2920;48.158;12.254;2023-05-07T05:04:30;3.03;;;2.30;;
5787;SDS011;2920;48.158;12.254;2023-05-07T05:06:56;3.25;;;2.70;;
5787;SDS011;2920;48.158;12.254;2023-05-07T05:09:21;4.57;;;2.60;;
5787;SDS011;2920;48.158;12.254;2023-05-07T05:11:46;5.78;;;3.58;;
5787;SDS011;2920;48.158;12.254;2023-05-07T05:14:12;4.10;;;3.03;;
5787;SDS011;2920;48.158;12.254;2023-05-07T05:16:37;3.15;;;2.53;;
5787;SDS011;2920;48.158;12.254;2023-05-07T05:19:02;6.00;;;3.63;;
5787;SDS011;2920;48.158;12.254;2023-05-07T05:21:28;2.97;;;2.55;;
5787;SDS011;2920;48.158;12.254;2023-05-07T05:23:53;4.88;;;3.55;;
5787;SDS011;2920;48.158;12.254;2023-05-07T05:26:19;6.25;;;4.25;;
5787;SDS011;2920;48.158;12.254;2023-05-07T05:28:46;6.40;;;4.28;;
5787;SDS011;2920;48.158;12.254;2023-05-07T05:31:11;8.05;;;4.75;;
5787;SDS011;2920;48.158;12.254;2023-05-07T05:33:36;7.75;;;4.82;;
5787;SDS011;2920;48.158;12.254;2023-05-07T05:36:02;6.50;;;4.93;;
5787;SDS011;2920;48.158;12.254;2023-05-07T05:38:27;5.93;;;4.90;;
5787;SDS011;2920;48.158;12.254;2023-05-07T05:40:52;5.05;;;4.30;;
5787;SDS011;2920;48.158;12.254;2023-05-07T05:43:18;6.70;;;5.28;;
5787;SDS011;2920;48.158;12.254;2023-05-07T05:45:43;6.68;;;5.32;;
5787;SDS011;2920;48.158;12.254;2023-05-07T05:48:08;7.18;;;5.50;;
5787;SDS011;2920;48.158;12.254;2023-05-07T05:50:34;8.23;;;5.30;;
5787;SDS011;2920;48.158;12.254;2023-05-07T05:53:01;9.60;;;6.07;;
5787;SDS011;2920;48.158;12.254;2023-05-07T05:55:26;7.55;;;5.90;;
5787;SDS011;2920;48.158;12.254;2023-05-07T05:57:52;11.10;;;7.53;;
5787;SDS011;2920;48.158;12.254;2023-05-07T06:00:17;9.77;;;6.40;;
5787;SDS011;2920;48.158;12.254;2023-05-07T06:02:43;11.50;;;7.35;;
5787;SDS011;2920;48.158;12.254;2023-05-07T06:05:08;8.88;;;5.90;;
5787;SDS011;2920;48.158;12.254;2023-05-07T06:07:34;8.27;;;6.13;;
5787;SDS011;2920;48.158;12.254;2023-05-07T06:09:59;7.95;;;6.20;;
5787;SDS011;2920;48.158;12.254;2023-05-07T06:12:25;9.00;;;6.28;;
5787;SDS011;2920;48.158;12.254;2023-05-07T06:14:51;7.25;;;5.68;;
5787;SDS011;2920;48.158;12.254;2023-05-07T06:17:16;9.60;;;6.18;;
5787;SDS011;2920;48.158;12.254;2023-05-07T06:19:41;7.03;;;6.00;;
5787;SDS011;2920;48.158;12.254;2023-05-07T06:22:07;7.60;;;6.47;;
5787;SDS011;2920;48.158;12.254;2023-05-07T06:24:32;10.32;;;5.32;;
5787;SDS011;2920;48.158;12.254;2023-05-07T06:26:57;8.15;;;5.50;;
5787;SDS011;2920;48.158;12.254;2023-05-07T06:29:23;6.63;;;5.50;;
5787;SDS011;2920;48.158;12.254;2023-05-07T06:31:50;8.77;;;5.18;;
5787;SDS011;2920;48.158;12.254;2023-05-07T06:34:17;8.20;;;4.97;;
5787;SDS011;2920;48.158;12.254;2023-05-07T06:36:42;6.53;;;5.00;;
5787;SDS011;2920;48.158;12.254;2023-05-07T06:39:08;5.30;;;4.80;;
5787;SDS011;2920;48.158;12.254;2023-05-07T06:41:33;5.80;;;4.43;;
5787;SDS011;2920;48.158;12.254;2023-05-07T06:44:00;7.00;;;4.93;;
5787;SDS011;2920;48.158;12.254;2023-05-07T06:46:25;7.00;;;4.97;;
5787;SDS011;2920;48.158;12.254;2023-05-07T06:48:51;6.50;;;4.88;;
5787;SDS011;2920;48.158;12.254;2023-05-07T06:51:17;6.78;;;4.60;;
5787;SDS011;2920;48.158;12.254;2023-05-07T06:53:42;7.85;;;5.40;;
5787;SDS011;2920;48.158;12.254;2023-05-07T06:56:08;4.93;;;3.55;;
5787;SDS011;2920;48.158;12.254;2023-05-07T06:58:33;5.90;;;4.90;;
5787;SDS011;2920;48.158;12.254;2023-05-07T07:00:59;5.80;;;4.60;;
5787;SDS011;2920;48.158;12.254;2023-05-07T07:03:24;5.72;;;4.22;;
5787;SDS011;2920;48.158;12.254;2023-05-07T07:05:53;8.43;;;4.53;;
5787;SDS011;2920;48.158;12.254;2023-05-07T07:10:46;4.57;;;3.58;;
5787;SDS011;2920;48.158;12.254;2023-05-07T07:13:12;4.78;;;4.25;;
5787;SDS011;2920;48.158;12.254;2023-05-07T07:15:37;5.30;;;3.50;;
5787;SDS011;2920;48.158;12.254;2023-05-07T07:18:02;3.83;;;3.03;;
5787;SDS011;2920;48.158;12.254;2023-05-07T07:20:28;4.15;;;3.33;;
5787;SDS011;2920;48.158;12.254;2023-05-07T07:22:53;3.97;;;3.05;;
5787;SDS011;2920;48.158;12.254;2023-05-07T07:25:18;4.15;;;3.25;;
5787;SDS011;2920;48.158;12.254;2023-05-07T07:27:44;6.25;;;3.35;;
5787;SDS011;2920;48.158;12.254;2023-05-07T07:30:09;3.72;;;3.25;;
5787;SDS011;2920;48.158;12.254;2023-05-07T07:32:35;5.60;;;3.13;;
5787;SDS011;2920;48.158;12.254;2023-05-07T07:35:00;3.28;;;2.50;;
5787;SDS011;2920;48.158;12.254;2023-05-07T07:37:26;3.45;;;2.67;;
5787;SDS011;2920;48.158;12.254;2023-05-07T07:39:51;2.85;;;2.53;;
5787;SDS011;2920;48.158;12.254;2023-05-07T07:42:17;4.78;;;2.40;;
5787;SDS011;2920;48.158;12.254;2023-05-07T07:44:43;4.72;;;2.50;;
5787;SDS011;2920;48.158;12.254;2023-05-07T07:47:08;4.05;;;2.80;;
5787;SDS011;2920;48.158;12.254;2023-05-07T07:49:33;5.95;;;3.10;;
5787;SDS011;2920;48.158;12.254;2023-05-07T07:51:59;4.82;;;2.60;;
5787;SDS011;2920;48.158;12.254;2023-05-07T07:54:24;3.55;;;2.30;;
5787;SDS011;2920;48.158;12.254;2023-05-07T07:56:50;3.25;;;2.65;;
5787;SDS011;2920;48.158;12.254;2023-05-07T07:59:16;4.97;;;3.00;;
5787;SDS011;2920;48.158;12.254;2023-05-07T08:01:43;3.50;;;2.60;;
5787;SDS011;2920;48.158;12.254;2023-05-07T08:04:09;3.70;;;2.85;;
5787;SDS011;2920;48.158;12.254;2023-05-07T08:06:35;3.45;;;2.80;;
5787;SDS011;2920;48.158;12.254;2023-05-07T08:09:00;3.85;;;2.90;;
5787;SDS011;2920;48.158;12.254;2023-05-07T08:11:25;3.60;;;2.97;;
5787;SDS011;2920;48.158;12.254;2023-05-07T08:13:51;3.60;;;3.10;;
5787;SDS011;2920;48.158;12.254;2023-05-07T08:16:16;4.22;;;3.40;;
5787;SDS011;2920;48.158;12.254;2023-05-07T08:18:42;2.92;;;2.63;;
5787;SDS011;2920;48.158;12.254;2023-05-07T08:21:07;3.63;;;3.08;;
5787;SDS011;2920;48.158;12.254;2023-05-07T08:23:32;4.50;;;3.38;;
5787;SDS011;2920;48.158;12.254;2023-05-07T08:25:59;4.60;;;3.22;;
5787;SDS011;2920;48.158;12.254;2023-05-07T08:28:25;5.43;;;3.28;;
5787;SDS011;2920;48.158;12.254;2023-05-07T08:30:50;4.28;;;2.88;;
5787;SDS011;2920;48.158;12.254;2023-05-07T08:33:16;4.18;;;3.20;;
5787;SDS011;2920;48.158;12.254;2023-05-07T08:35:41;4.82;;;3.40;;
5787;SDS011;2920;48.158;12.254;2023-05-07T08:38:06;5.18;;;3.53;;
5787;SDS011;2920;48.158;12.254;2023-05-07T08:40:33;4.38;;;3.13;;
5787;SDS011;2920;48.158;12.254;2023-05-07T08:43:02;6.75;;;3.13;;
5787;SDS011;2920;48.158;12.254;2023-05-07T08:45:28;7.07;;;3.13;;
5787;SDS011;2920;48.158;12.254;2023-05-07T08:47:56;5.22;;;3.70;;
5787;SDS011;2920;48.158;12.254;2023-05-07T08:50:23;5.13;;;4.00;;
5787;SDS011;2920;48.158;12.254;2023-05-07T08:52:49;4.93;;;4.32;;
5787;SDS011;2920;48.158;12.254;2023-05-07T08:55:14;6.10;;;4.35;;
5787;SDS011;2920;48.158;12.254;2023-05-07T08:57:40;5.82;;;4.10;;
5787;SDS011;2920;48.158;12.254;2023-05-07T09:00:05;6.45;;;3.97;;
5787;SDS011;2920;48.158;12.254;2023-05-07T09:02:32;8.15;;;5.05;;
5787;SDS011;2920;48.158;12.254;2023-05-07T09:04:57;6.03;;;5.40;;
5787;SDS011;2920;48.158;12.254;2023-05-07T09:07:23;4.78;;;4.10;;
5787;SDS011;2920;48.158;12.254;2023-05-07T09:09:48;10.07;;;5.25;;
5787;SDS011;2920;48.158;12.254;2023-05-07T09:12:14;7.78;;;5.57;;
5787;SDS011;2920;48.158;12.254;2023-05-07T09:14:39;6.65;;;5.05;;
5787;SDS011;2920;48.158;12.254;2023-05-07T09:17:04;6.35;;;4.43;;
5787;SDS011;2920;48.158;12.254;2023-05-07T09:19:30;9.77;;;5.30;;
5787;SDS011;2920;48.158;12.254;2023-05-07T09:21:59;6.53;;;4.97;;
5787;SDS011;2920;48.158;12.254;2023-05-07T09:24:28;6.57;;;4.60;;
5787;SDS011;2920;48.158;12.254;2023-05-07T09:26:58;4.80;;;4.32;;
5787;SDS011;2920;48.158;12.254;2023-05-07T09:29:24;4.57;;;4.10;;
5787;SDS011;2920;48.158;12.254;2023-05-07T09:31:49;5.30;;;4.68;;
5787;SDS011;2920;48.158;12.254;2023-05-07T09:34:15;7.10;;;4.45;;
5787;SDS011;2920;48.158;12.254;2023-05-07T09:36:41;5.57;;;5.00;;
5787;SDS011;2920;48.158;12.254;2023-05-07T09:39:06;6.93;;;5.38;;
5787;SDS011;2920;48.158;12.254;2023-05-07T09:41:32;8.60;;;5.85;;
5787;SDS011;2920;48.158;12.254;2023-05-07T09:43:57;7.80;;;5.38;;
5787;SDS011;2920;48.158;12.254;2023-05-07T09:46:25;7.72;;;5.90;;
5787;SDS011;2920;48.158;12.254;2023-05-07T09:48:54;6.13;;;4.45;;
5787;SDS011;2920;48.158;12.254;2023-05-07T09:51:24;5.70;;;5.18;;
5787;SDS011;2920;48.158;12.254;2023-05-07T09:53:53;10.93;;;5.32;;
5787;SDS011;2920;48.158;12.254;2023-05-07T09:56:19;7.07;;;4.97;;
5787;SDS011;2920;48.158;12.254;2023-05-07T09:58:45;7.28;;;5.63;;
5787;SDS011;2920;48.158;12.254;2023-05-07T10:01:12;5.30;;;4.05;;
5787;SDS011;2920;48.158;12.254;2023-05-07T10:03:38;5.15;;;3.92;;
5787;SDS011;2920;48.158;12.254;2023-05-07T10:06:05;6.88;;;4.50;;
5787;SDS011;2920;48.158;12.254;2023-05-07T10:08:30;7.40;;;4.07;;
5787;SDS011;2920;48.158;12.254;2023-05-07T10:10:56;4.90;;;4.38;;
5787;SDS011;2920;48.158;12.254;2023-05-07T10:13:21;4.97;;;3.72;;
5787;SDS011;2920;48.158;12.254;2023-05-07T10:15:47;4.72;;;4.10;;
5787;SDS011;2920;48.158;12.254;2023-05-07T10:18:12;7.03;;;2.97;;
5787;SDS011;2920;48.158;12.254;2023-05-07T10:20:38;2.40;;;2.00;;
5787;SDS011;2920;48.158;12.254;2023-05-07T10:23:04;6.13;;;2.63;;
5787;SDS011;2920;48.158;12.254;2023-05-07T10:25:31;4.55;;;3.63;;
5787;SDS011;2920;48.158;12.254;2023-05-07T10:27:59;5.05;;;3.10;;
5787;SDS011;2920;48.158;12.254;2023-05-07T10:33:28;5.10;;;3.45;;
5787;SDS011;2920;48.158;12.254;2023-05-07T10:35:58;4.95;;;2.75;;
5787;SDS011;2920;48.158;12.254;2023-05-07T10:38:26;2.58;;;2.28;;
5787;SDS011;2920;48.158;12.254;2023-05-07T10:40:52;4.93;;;2.20;;
5787;SDS011;2920;48.158;12.254;2023-05-07T10:43:17;4.25;;;3.00;;
5787;SDS011;2920;48.158;12.254;2023-05-07T10:45:43;3.67;;;2.33;;
5787;SDS011;2920;48.158;12.254;2023-05-07T10:48:09;3.28;;;2.17;;
5787;SDS011;2920;48.158;12.254;2023-05-07T10:50:39;4.00;;;3.53;;
5787;SDS011;2920;48.158;12.254;2023-05-07T10:55:46;2.60;;;1.95;;
5787;SDS011;2920;48.158;12.254;2023-05-07T10:58:26;4.18;;;2.60;;
5787;SDS011;2920;48.158;12.254;2023-05-07T11:00:59;2.70;;;1.90;;
5787;SDS011;2920;48.158;12.254;2023-05-07T11:03:26;5.72;;;2.83;;
5787;SDS011;2920;48.158;12.254;2023-05-07T11:06:11;4.55;;;3.22;;
5787;SDS011;2920;48.158;12.254;2023-05-07T11:11:17;4.30;;;3.20;;
5787;SDS011;2920;48.158;12.254;2023-05-07T11:13:49;3.35;;;2.92;;
5787;SDS011;2920;48.158;12.254;2023-05-07T11:16:21;5.47;;;2.88;;
5787;SDS011;2920;48.158;12.254;2023-05-07T11:18:57;10.32;;;2.88;;
5787;SDS011;2920;48.158;12.254;2023-05-07T11:21:35;3.58;;;1.98;;
5787;SDS011;2920;48.158;12.254;2023-05-07T11:26:29;2.20;;;1.80;;
5787;SDS011;2920;48.158;12.254;2023-05-07T11:28:56;4.50;;;2.63;;
5787;SDS011;2920;48.158;12.254;2023-05-07T11:31:22;3.42;;;2.35;;
5787;SDS011;2920;48.158;12.254;2023-05-07T11:33:53;3.53;;;2.42;;
5787;SDS011;2920;48.158;12.254;2023-05-07T11:36:19;3.40;;;2.30;;
5787;SDS011;2920;48.158;12.254;2023-05-07T11:38:45;4.78;;;2.60;;
5787;SDS011;2920;48.158;12.254;2023-05-07T11:41:11;2.65;;;2.42;;
5787;SDS011;2920;48.158;12.254;2023-05-07T11:43:36;3.08;;;2.78;;
5787;SDS011;2920;48.158;12.254;2023-05-07T11:46:08;4.15;;;2.20;;
5787;SDS011;2920;48.158;12.254;2023-05-07T11:48:35;3.60;;;2.10;;
5787;SDS011;2920;48.158;12.254;2023-05-07T11:51:01;4.82;;;2.83;;
5787;SDS011;2920;48.158;12.254;2023-05-07T11:53:28;3.08;;;2.75;;
5787;SDS011;2920;48.158;12.254;2023-05-07T11:56:00;2.95;;;2.38;;
5787;SDS011;2920;48.158;12.254;2023-05-07T11:58:26;2.60;;;2.33;;
5787;SDS011;2920;48.158;12.254;2023-05-07T12:00:52;2.63;;;2.42;;
5787;SDS011;2920;48.158;12.254;2023-05-07T12:03:18;2.78;;;2.40;;
5787;SDS011;2920;48.158;12.254;2023-05-07T12:05:47;2.55;;;2.35;;
5787;SDS011;2920;48.158;12.254;2023-05-07T12:08:13;3.40;;;2.78;;
5787;SDS011;2920;48.158;12.254;2023-05-07T12:10:40;3.35;;;2.50;;
5787;SDS011;2920;48.158;12.254;2023-05-07T12:13:13;5.38;;;2.40;;
5787;SDS011;2920;48.158;12.254;2023-05-07T12:15:53;2.55;;;2.35;;
5787;SDS011;2920;48.158;12.254;2023-05-07T12:18:19;2.20;;;2.00;;
5787;SDS011;2920;48.158;12.254;2023-05-07T12:20:45;2.60;;;2.10;;
5787;SDS011;2920;48.158;12.254;2023-05-07T12:23:10;4.20;;;2.30;;
5787;SDS011;2920;48.158;12.254;2023-05-07T12:25:39;6.45;;;2.03;;
5787;SDS011;2920;48.158;12.254;2023-05-07T12:28:12;2.70;;;1.80;;
5787;SDS011;2920;48.158;12.254;2023-05-07T12:30:40;3.03;;;1.90;;
5787;SDS011;2920;48.158;12.254;2023-05-07T12:33:05;2.40;;;2.20;;
5787;SDS011;2920;48.158;12.254;2023-05-07T12:35:32;3.88;;;1.70;;
5787;SDS011;2920;48.158;12.254;2023-05-07T12:38:01;4.32;;;2.20;;
5787;SDS011;2920;48.158;12.254;2023-05-07T12:40:42;2.75;;;2.10;;
5787;SDS011;2920;48.158;12.254;2023-05-07T12:43:15;2.72;;;2.00;;
5787;SDS011;2920;48.158;12.254;2023-05-07T12:45:50;2.22;;;1.90;;
5787;SDS011;2920;48.158;12.254;2023-05-07T12:48:16;4.22;;;1.90;;
5787;SDS011;2920;48.158;12.254;2023-05-07T12:50:42;5.32;;;2.03;;
5787;SDS011;2920;48.158;12.254;2023-05-07T12:53:09;3.13;;;1.95;;
5787;SDS011;2920;48.158;12.254;2023-05-07T12:55:42;2.17;;;1.60;;
5787;SDS011;2920;48.158;12.254;2023-05-07T12:58:13;4.43;;;1.80;;
5787;SDS011;2920;48.158;12.254;2023-05-07T13:00:49;2.92;;;2.00;;
5787;SDS011;2920;48.158;12.254;2023-05-07T13:05:52;1.63;;;1.52;;
5787;SDS011;2920;48.158;12.254;2023-05-07T13:11:02;2.42;;;1.60;;
5787;SDS011;2920;48.158;12.254;2023-05-07T13:13:32;2.47;;;1.88;;
5787;SDS011;2920;48.158;12.254;2023-05-07T13:15:58;2.95;;;1.90;;
5787;SDS011;2920;48.158;12.254;2023-05-07T13:18:26;2.00;;;1.52;;
5787;SDS011;2920;48.158;12.254;2023-05-07T13:20:52;1.90;;;1.67;;
5787;SDS011;2920;48.158;12.254;2023-05-07T13:23:18;2.22;;;2.03;;
5787;SDS011;2920;48.158;12.254;2023-05-07T13:25:43;3.58;;;1.88;;
5787;SDS011;2920;48.158;12.254;2023-05-07T13:28:09;3.05;;;1.90;;
5787;SDS011;2920;48.158;12.254;2023-05-07T13:30:34;3.15;;;1.80;;
5787;SDS011;2920;48.158;12.254;2023-05-07T13:33:00;2.42;;;1.90;;
5787;SDS011;2920;48.158;12.254;2023-05-07T13:35:25;2.30;;;1.77;;
5787;SDS011;2920;48.158;12.254;2023-05-07T13:37:50;3.75;;;2.05;;
5787;SDS011;2920;48.158;12.254;2023-05-07T13:40:17;3.05;;;2.20;;
5787;SDS011;2920;48.158;12.254;2023-05-07T13:42:42;3.78;;;1.90;;
5787;SDS011;2920;48.158;12.254;2023-05-07T13:45:08;3.17;;;1.70;;
5787;SDS011;2920;48.158;12.254;2023-05-07T13:47:34;6.43;;;2.00;;
5787;SDS011;2920;48.158;12.254;2023-05-07T13:49:59;3.10;;;2.15;;
5787;SDS011;2920;48.158;12.254;2023-05-07T13:52:24;2.45;;;2.00;;
5787;SDS011;2920;48.158;12.254;2023-05-07T13:54:51;3.40;;;2.03;;
5787;SDS011;2920;48.158;12.254;2023-05-07T13:57:17;2.50;;;1.85;;
5787;SDS011;2920;48.158;12.254;2023-05-07T13:59:42;2.50;;;1.80;;
5787;SDS011;2920;48.158;12.254;2023-05-07T14:02:08;2.63;;;1.85;;
5787;SDS011;2920;48.158;12.254;2023-05-07T14:04:34;1.92;;;1.67;;
5787;SDS011;2920;48.158;12.254;2023-05-07T14:06:59;2.15;;;1.70;;
5787;SDS011;2920;48.158;12.254;2023-05-07T14:09:25;2.22;;;1.70;;
5787;SDS011;2920;48.158;12.254;2023-05-07T14:11:50;2.78;;;1.90;;
5787;SDS011;2920;48.158;12.254;2023-05-07T14:14:17;3.50;;;1.80;;
5787;SDS011;2920;48.158;12.254;2023-05-07T14:16:42;2.78;;;1.90;;
5787;SDS011;2920;48.158;12.254;2023-05-07T14:19:08;3.28;;;1.60;;
5787;SDS011;2920;48.158;12.254;2023-05-07T14:21:33;4.32;;;1.75;;
5787;SDS011;2920;48.158;12.254;2023-05-07T14:23:58;1.73;;;1.60;;
5787;SDS011;2920;48.158;12.254;2023-05-07T14:26:24;2.30;;;2.00;;
5787;SDS011;2920;48.158;12.254;2023-05-07T14:28:51;2.17;;;1.63;;
5787;SDS011;2920;48.158;12.254;2023-05-07T14:31:17;2.42;;;1.92;;
5787;SDS011;2920;48.158;12.254;2023-05-07T14:33:42;2.45;;;1.80;;
5787;SDS011;2920;48.158;12.254;2023-05-07T14:36:08;2.83;;;1.45;;
5787;SDS011;2920;48.158;12.254;2023-05-07T14:38:33;2.30;;;1.40;;
5787;SDS011;2920;48.158;12.254;2023-05-07T14:40:58;4.30;;;2.13;;
5787;SDS011;2920;48.158;12.254;2023-05-07T14:43:24;4.72;;;1.77;;
5787;SDS011;2920;48.158;12.254;2023-05-07T14:45:49;2.65;;;1.83;;
5787;SDS011;2920;48.158;12.254;2023-05-07T14:48:15;6.03;;;1.90;;
5787;SDS011;2920;48.158;12.254;2023-05-07T14:50:43;3.55;;;1.73;;
5787;SDS011;2920;48.158;12.254;2023-05-07T14:53:08;2.20;;;2.00;;
5787;SDS011;2920;48.158;12.254;2023-05-07T14:55:34;2.90;;;1.80;;
5787;SDS011;2920;48.158;12.254;2023-05-07T14:57:59;3.15;;;1.90;;
5787;SDS011;2920;48.158;12.254;2023-05-07T15:00:25;5.05;;;1.70;;
5787;SDS011;2920;48.158;12.254;2023-05-07T15:02:50;2.65;;;1.80;;
5787;SDS011;2920;48.158;12.254;2023-05-07T15:05:15;1.95;;;1.80;;
5787;SDS011;2920;48.158;12.254;2023-05-07T15:07:42;2.70;;;1.95;;
5787;SDS011;2920;48.158;12.254;2023-05-07T15:10:07;1.70;;;1.48;;
5787;SDS011;2920;48.158;12.254;2023-05-07T15:12:33;2.40;;;1.73;;
5787;SDS011;2920;48.158;12.254;2023-05-07T15:14:58;2.85;;;1.52;;